sensor_id;sensor_type;location;lat;lon;timestamp;pressure;altitude;pressure_sealevel;temperature;humidity
49461;BME280;35355;49.198;-0.368;2022-12-07T00:00:27;101667.94;;;4.04;84.36
49461;BME280;35355;49.198;-0.368;2022-12-07T00:02:52;101661.25;;;4.00;84.48
49461;BME280;35355;49.198;-0.368;2022-12-07T00:05:17;101649.38;;;3.95;84.90
49461;BME280;35355;49.198;-0.368;2022-12-07T00:07:43;101651.25;;;3.94;84.80
49461;BME280;35355;49.198;-0.368;2022-12-07T00:10:08;101645.19;;;3.92;84.58
49461;BME280;35355;49.198;-0.368;2022-12-07T00:12:33;101647.06;;;3.92;84.52
49461;BME280;35355;49.198;-0.368;2022-12-07T00:14:59;101655.34;;;3.90;84.80
49461;BME280;35355;49.198;-0.368;2022-12-07T00:17:24;101650.34;;;3.87;85.09
49461;BME280;35355;49.198;-0.368;2022-12-07T00:19:50;101646.59;;;3.88;84.62
49461;BME280;35355;49.198;-0.368;2022-12-07T00:22:15;101635.16;;;3.86;84.66
49461;BME280;35355;49.198;-0.368;2022-12-07T00:24:41;101629.13;;;3.84;84.99
49461;BME280;35355;49.198;-0.368;2022-12-07T00:27:06;101629.50;;;3.81;84.67
49461;BME280;35355;49.198;-0.368;2022-12-07T00:29:31;101623.66;;;3.77;84.49
49461;BME280;35355;49.198;-0.368;2022-12-07T00:31:57;101627.78;;;3.73;84.67
49461;BME280;35355;49.198;-0.368;2022-12-07T00:34:22;101628.63;;;3.74;84.94
49461;BME280;35355;49.198;-0.368;2022-12-07T00:36:48;101631.53;;;3.72;84.94
49461;BME280;35355;49.198;-0.368;2022-12-07T00:39:14;101634.03;;;3.74;85.04
49461;BME280;35355;49.198;-0.368;2022-12-07T00:41:40;101633.84;;;3.75;85.31
49461;BME280;35355;49.198;-0.368;2022-12-07T00:44:05;101629.88;;;3.78;84.92
49461;BME280;35355;49.198;-0.368;2022-12-07T00:46:31;101627.84;;;3.80;85.11
49461;BME280;35355;49.198;-0.368;2022-12-07T00:48:56;101631.16;;;3.82;84.63
49461;BME280;35355;49.198;-0.368;2022-12-07T00:51:23;101625.78;;;3.82;84.59
49461;BME280;35355;49.198;-0.368;2022-12-07T00:53:50;101624.34;;;3.86;84.97
49461;BME280;35355;49.198;-0.368;2022-12-07T00:56:19;101617.94;;;3.87;84.57
49461;BME280;35355;49.198;-0.368;2022-12-07T00:58:53;101627.69;;;3.88;84.74
49461;BME280;35355;49.198;-0.368;2022-12-07T01:01:18;101616.25;;;3.86;84.64
49461;BME280;35355;49.198;-0.368;2022-12-07T01:03:44;101626.66;;;3.89;84.45
49461;BME280;35355;49.198;-0.368;2022-12-07T01:06:16;101625.66;;;3.90;85.09
49461;BME280;35355;49.198;-0.368;2022-12-07T01:08:42;101629.56;;;3.88;84.60
49461;BME280;35355;49.198;-0.368;2022-12-07T01:11:09;101633.09;;;3.88;84.59
49461;BME280;35355;49.198;-0.368;2022-12-07T01:13:36;101624.16;;;3.88;84.57
49461;BME280;35355;49.198;-0.368;2022-12-07T01:16:04;101624.78;;;3.90;84.99
49461;BME280;35355;49.198;-0.368;2022-12-07T01:18:32;101623.75;;;3.91;84.39
49461;BME280;35355;49.198;-0.368;2022-12-07T01:21:07;101630.66;;;3.93;84.36
49461;BME280;35355;49.198;-0.368;2022-12-07T01:23:34;101620.88;;;3.92;84.62
49461;BME280;35355;49.198;-0.368;2022-12-07T01:26:01;101615.47;;;3.92;84.41
49461;BME280;35355;49.198;-0.368;2022-12-07T01:28:28;101616.31;;;3.93;84.73
49461;BME280;35355;49.198;-0.368;2022-12-07T01:31:04;101619.84;;;3.93;84.27
49461;BME280;35355;49.198;-0.368;2022-12-07T01:33:32;101610.06;;;3.92;84.36
49461;BME280;35355;49.198;-0.368;2022-12-07T01:36:19;101615.47;;;3.92;84.50
49461;BME280;35355;49.198;-0.368;2022-12-07T01:38:46;101612.13;;;3.90;84.43
49461;BME280;35355;49.198;-0.368;2022-12-07T01:41:13;101608.59;;;3.90;84.40
49461;BME280;35355;49.198;-0.368;2022-12-07T01:47:00;101611.75;;;3.93;84.59
49461;BME280;35355;49.198;-0.368;2022-12-07T01:49:47;101619.66;;;3.95;84.23
49461;BME280;35355;49.198;-0.368;2022-12-07T01:52:20;101614.25;;;3.95;84.24
49461;BME280;35355;49.198;-0.368;2022-12-07T01:54:51;101615.47;;;3.92;84.04
49461;BME280;35355;49.198;-0.368;2022-12-07T01:57:18;101611.75;;;3.93;84.64
49461;BME280;35355;49.198;-0.368;2022-12-07T01:59:45;101614.44;;;3.93;84.88
49461;BME280;35355;49.198;-0.368;2022-12-07T02:02:19;101614.25;;;3.95;84.73
49461;BME280;35355;49.198;-0.368;2022-12-07T02:04:45;101613.44;;;3.94;84.51
49461;BME280;35355;49.198;-0.368;2022-12-07T02:07:11;101615.28;;;3.94;84.18
49461;BME280;35355;49.198;-0.368;2022-12-07T02:09:36;101617.16;;;3.93;84.56
49461;BME280;35355;49.198;-0.368;2022-12-07T02:12:02;101622.16;;;3.96;84.51
49461;BME280;35355;49.198;-0.368;2022-12-07T02:14:28;101627.94;;;3.93;84.41
49461;BME280;35355;49.198;-0.368;2022-12-07T02:20:18;101624.97;;;3.88;84.18
49461;BME280;35355;49.198;-0.368;2022-12-07T02:28:33;101626.22;;;3.85;84.43
49461;BME280;35355;49.198;-0.368;2022-12-07T02:31:08;101630.78;;;3.85;84.67
49461;BME280;35355;49.198;-0.368;2022-12-07T02:33:40;101627.88;;;3.86;84.65
49461;BME280;35355;49.198;-0.368;2022-12-07T02:36:12;101624.97;;;3.88;84.56
49461;BME280;35355;49.198;-0.368;2022-12-07T02:38:58;101622.94;;;3.90;84.48
49461;BME280;35355;49.198;-0.368;2022-12-07T02:41:29;101626.66;;;3.89;84.22
49461;BME280;35355;49.198;-0.368;2022-12-07T02:44:00;101628.34;;;3.90;84.79
49461;BME280;35355;49.198;-0.368;2022-12-07T02:46:31;101617.34;;;3.92;84.78
49461;BME280;35355;49.198;-0.368;2022-12-07T02:48:58;101619.66;;;3.95;84.87
49461;BME280;35355;49.198;-0.368;2022-12-07T02:51:32;101620.09;;;3.98;84.53
49461;BME280;35355;49.198;-0.368;2022-12-07T02:53:59;101618.03;;;4.00;84.51
49461;BME280;35355;49.198;-0.368;2022-12-07T02:56:42;101619.69;;;4.01;84.60
49461;BME280;35355;49.198;-0.368;2022-12-07T03:13:09;101613.91;;;4.04;84.71
49461;BME280;35355;49.198;-0.368;2022-12-07T03:18:21;101603.13;;;4.04;85.17
49461;BME280;35355;49.198;-0.368;2022-12-07T03:20:50;101601.44;;;4.03;85.06
49461;BME280;35355;49.198;-0.368;2022-12-07T03:23:18;101603.47;;;4.01;84.55
49461;BME280;35355;49.198;-0.368;2022-12-07T03:25:47;101596.81;;;3.97;84.82
49461;BME280;35355;49.198;-0.368;2022-12-07T03:28:17;101597.59;;;3.91;84.59
49461;BME280;35355;49.198;-0.368;2022-12-07T03:30:57;101591.31;;;3.84;84.64
49461;BME280;35355;49.198;-0.368;2022-12-07T03:33:29;101594.75;;;3.71;84.96
49461;BME280;35355;49.198;-0.368;2022-12-07T03:36:08;101596.75;;;3.62;84.55
49461;BME280;35355;49.198;-0.368;2022-12-07T03:38:49;101600.84;;;3.58;84.71
49461;BME280;35355;49.198;-0.368;2022-12-07T03:41:25;101598.16;;;3.58;85.08
49461;BME280;35355;49.198;-0.368;2022-12-07T03:43:51;101603.81;;;3.63;85.43
49461;BME280;35355;49.198;-0.368;2022-12-07T03:51:45;101589.47;;;3.63;84.91
49461;BME280;35355;49.198;-0.368;2022-12-07T03:54:26;101588.44;;;3.64;85.11
49461;BME280;35355;49.198;-0.368;2022-12-07T03:56:53;101588.00;;;3.60;85.03
49461;BME280;35355;49.198;-0.368;2022-12-07T03:59:19;101584.03;;;3.56;84.92
49461;BME280;35355;49.198;-0.368;2022-12-07T04:01:52;101593.53;;;3.52;85.27
49461;BME280;35355;49.198;-0.368;2022-12-07T04:04:18;101581.84;;;3.45;85.14
49461;BME280;35355;49.198;-0.368;2022-12-07T04:06:44;101578.25;;;3.38;85.15
49461;BME280;35355;49.198;-0.368;2022-12-07T04:09:09;101580.03;;;3.30;85.26
49461;BME280;35355;49.198;-0.368;2022-12-07T04:11:34;101581.47;;;3.26;85.03
49461;BME280;35355;49.198;-0.368;2022-12-07T04:14:00;101578.59;;;3.28;85.30
49461;BME280;35355;49.198;-0.368;2022-12-07T04:16:47;101578.38;;;3.29;85.34
49461;BME280;35355;49.198;-0.368;2022-12-07T04:19:14;101581.31;;;3.34;85.34
49461;BME280;35355;49.198;-0.368;2022-12-07T04:21:40;101581.31;;;3.34;85.67
49461;BME280;35355;49.198;-0.368;2022-12-07T04:24:06;101575.16;;;3.41;85.44
49461;BME280;35355;49.198;-0.368;2022-12-07T04:26:31;101577.47;;;3.44;85.73
49461;BME280;35355;49.198;-0.368;2022-12-07T04:28:57;101579.41;;;3.50;85.36
49461;BME280;35355;49.198;-0.368;2022-12-07T04:31:22;101584.03;;;3.56;85.45
49461;BME280;35355;49.198;-0.368;2022-12-07T04:33:47;101579.25;;;3.58;85.46
49461;BME280;35355;49.198;-0.368;2022-12-07T04:36:13;101576.56;;;3.58;85.21
49461;BME280;35355;49.198;-0.368;2022-12-07T04:38:38;101571.16;;;3.58;85.71
49461;BME280;35355;49.198;-0.368;2022-12-07T04:41:07;101571.97;;;3.59;85.35
49461;BME280;35355;49.198;-0.368;2022-12-07T04:43:33;101572.84;;;3.59;85.52
49461;BME280;35355;49.198;-0.368;2022-12-07T04:45:58;101577.22;;;3.60;85.41
49461;BME280;35355;49.198;-0.368;2022-12-07T04:48:24;101565.16;;;3.63;85.30
49461;BME280;35355;49.198;-0.368;2022-12-07T04:50:49;101569.16;;;3.67;85.19
49461;BME280;35355;49.198;-0.368;2022-12-07T04:53:15;101561.06;;;3.67;85.55
49461;BME280;35355;49.198;-0.368;2022-12-07T04:55:40;101561.25;;;3.65;85.71
49461;BME280;35355;49.198;-0.368;2022-12-07T04:58:06;101562.94;;;3.66;85.14
49461;BME280;35355;49.198;-0.368;2022-12-07T05:00:31;101568.13;;;3.68;84.92
49461;BME280;35355;49.198;-0.368;2022-12-07T05:02:56;101566.66;;;3.65;85.31
49461;BME280;35355;49.198;-0.368;2022-12-07T05:05:22;101571.22;;;3.65;85.42
49461;BME280;35355;49.198;-0.368;2022-12-07T05:07:47;101566.03;;;3.63;85.32
49461;BME280;35355;49.198;-0.368;2022-12-07T05:10:13;101563.53;;;3.62;85.44
49461;BME280;35355;49.198;-0.368;2022-12-07T05:12:38;101571.16;;;3.58;85.28
49461;BME280;35355;49.198;-0.368;2022-12-07T05:15:04;101566.34;;;3.54;85.54
49461;BME280;35355;49.198;-0.368;2022-12-07T05:17:29;101566.53;;;3.52;85.19
49461;BME280;35355;49.198;-0.368;2022-12-07T05:19:55;101566.53;;;3.52;85.07
49461;BME280;35355;49.198;-0.368;2022-12-07T05:42:15;101563.06;;;2.27;85.57
49461;BME280;35355;49.198;-0.368;2022-12-07T05:44:42;101560.31;;;2.20;85.62
49461;BME280;35355;49.198;-0.368;2022-12-07T05:47:08;101561.94;;;2.21;85.57
49461;BME280;35355;49.198;-0.368;2022-12-07T05:49:33;101554.91;;;2.20;85.84
49461;BME280;35355;49.198;-0.368;2022-12-07T05:51:59;101561.94;;;2.21;86.35
49461;BME280;35355;49.198;-0.368;2022-12-07T05:54:24;101555.56;;;2.22;86.41
49461;BME280;35355;49.198;-0.368;2022-12-07T05:56:50;101565.97;;;2.25;85.95
49461;BME280;35355;49.198;-0.368;2022-12-07T05:59:16;101558.91;;;2.24;85.89
49461;BME280;35355;49.198;-0.368;2022-12-07T06:01:56;101557.25;;;2.23;86.01
49461;BME280;35355;49.198;-0.368;2022-12-07T06:04:22;101565.31;;;2.23;86.67
49461;BME280;35355;49.198;-0.368;2022-12-07T06:06:47;101558.06;;;2.24;86.30
49461;BME280;35355;49.198;-0.368;2022-12-07T06:09:13;101565.59;;;2.28;86.60
49461;BME280;35355;49.198;-0.368;2022-12-07T06:11:40;101564.38;;;2.31;86.03
49461;BME280;35355;49.198;-0.368;2022-12-07T06:14:24;101551.94;;;2.30;86.22
49461;BME280;35355;49.198;-0.368;2022-12-07T06:16:49;101553.59;;;2.31;86.52
49461;BME280;35355;49.198;-0.368;2022-12-07T06:19:15;101556.09;;;2.33;86.27
49461;BME280;35355;49.198;-0.368;2022-12-07T06:21:41;101550.09;;;2.31;86.20
49461;BME280;35355;49.198;-0.368;2022-12-07T06:24:06;101549.41;;;2.28;86.14
49461;BME280;35355;49.198;-0.368;2022-12-07T06:26:32;101554.16;;;2.26;86.16
49461;BME280;35355;49.198;-0.368;2022-12-07T06:28:58;101555.19;;;2.25;86.55
49461;BME280;35355;49.198;-0.368;2022-12-07T06:31:23;101549.78;;;2.25;86.22
49461;BME280;35355;49.198;-0.368;2022-12-07T06:33:49;101558.91;;;2.24;86.13
49461;BME280;35355;49.198;-0.368;2022-12-07T06:36:14;101557.88;;;2.25;86.35
49461;BME280;35355;49.198;-0.368;2022-12-07T06:38:40;101559.75;;;2.25;86.66
49461;BME280;35355;49.198;-0.368;2022-12-07T06:41:06;101567.25;;;2.30;86.62
49461;BME280;35355;49.198;-0.368;2022-12-07T06:43:32;101569.88;;;2.38;86.79
49461;BME280;35355;49.198;-0.368;2022-12-07T06:45:57;101559.16;;;2.44;86.51
49461;BME280;35355;49.198;-0.368;2022-12-07T06:48:23;101565.47;;;2.52;87.03
49461;BME280;35355;49.198;-0.368;2022-12-07T06:50:48;101565.28;;;2.53;86.47
49461;BME280;35355;49.198;-0.368;2022-12-07T06:53:14;101565.47;;;2.52;86.25
49461;BME280;35355;49.198;-0.368;2022-12-07T06:55:39;101553.22;;;2.49;86.46
49461;BME280;35355;49.198;-0.368;2022-12-07T06:58:05;101556.94;;;2.48;86.90
49461;BME280;35355;49.198;-0.368;2022-12-07T07:00:30;101553.88;;;2.51;86.59
49461;BME280;35355;49.198;-0.368;2022-12-07T07:02:56;101564.28;;;2.54;86.63
49461;BME280;35355;49.198;-0.368;2022-12-07T07:05:21;101561.84;;;2.59;86.95
49461;BME280;35355;49.198;-0.368;2022-12-07T07:07:48;101558.38;;;2.66;86.98
49461;BME280;35355;49.198;-0.368;2022-12-07T07:10:14;101565.72;;;2.72;86.65
49461;BME280;35355;49.198;-0.368;2022-12-07T07:12:39;101556.22;;;2.76;86.73
49461;BME280;35355;49.198;-0.368;2022-12-07T07:15:05;101558.38;;;2.80;86.50
49461;BME280;35355;49.198;-0.368;2022-12-07T07:17:30;101561.31;;;2.86;86.82
49461;BME280;35355;49.198;-0.368;2022-12-07T07:19:55;101558.03;;;2.90;86.92
49461;BME280;35355;49.198;-0.368;2022-12-07T07:22:21;101558.88;;;2.91;86.81
49461;BME280;35355;49.198;-0.368;2022-12-07T07:24:46;101555.25;;;2.98;86.95
49461;BME280;35355;49.198;-0.368;2022-12-07T07:27:11;101560.88;;;3.04;86.87
49461;BME280;35355;49.198;-0.368;2022-12-07T07:29:37;101555.78;;;3.09;86.72
49461;BME280;35355;49.198;-0.368;2022-12-07T07:32:02;101556.41;;;3.11;86.65
49461;BME280;35355;49.198;-0.368;2022-12-07T07:34:28;101558.31;;;3.17;86.53
49461;BME280;35355;49.198;-0.368;2022-12-07T07:36:53;101569.78;;;3.19;86.90
49461;BME280;35355;49.198;-0.368;2022-12-07T07:39:18;101562.94;;;3.23;86.69
49461;BME280;35355;49.198;-0.368;2022-12-07T07:41:44;101567.97;;;3.26;86.21
49461;BME280;35355;49.198;-0.368;2022-12-07T07:44:09;101573.38;;;3.26;86.38
49461;BME280;35355;49.198;-0.368;2022-12-07T07:46:35;101574.19;;;3.27;86.77
49461;BME280;35355;49.198;-0.368;2022-12-07T07:49:00;101572.53;;;3.26;86.45
49461;BME280;35355;49.198;-0.368;2022-12-07T07:51:26;101570.03;;;3.24;86.32
49461;BME280;35355;49.198;-0.368;2022-12-07T07:53:51;101574.78;;;3.22;86.35
49461;BME280;35355;49.198;-0.368;2022-12-07T07:56:19;101570.41;;;3.21;86.23
49461;BME280;35355;49.198;-0.368;2022-12-07T07:58:44;101564.38;;;3.19;86.53
49461;BME280;35355;49.198;-0.368;2022-12-07T08:01:09;101573.94;;;3.22;86.54
49461;BME280;35355;49.198;-0.368;2022-12-07T08:03:35;101579.53;;;3.20;86.39
49461;BME280;35355;49.198;-0.368;2022-12-07T08:06:04;101577.09;;;3.25;86.25
49461;BME280;35355;49.198;-0.368;2022-12-07T08:08:30;101578.78;;;3.26;86.48
49461;BME280;35355;49.198;-0.368;2022-12-07T08:10:55;101584.16;;;3.26;86.90
49461;BME280;35355;49.198;-0.368;2022-12-07T08:13:21;101588.91;;;3.24;86.42
49461;BME280;35355;49.198;-0.368;2022-12-07T08:15:47;101586.22;;;3.24;86.39
49461;BME280;35355;49.198;-0.368;2022-12-07T08:18:14;101597.00;;;3.24;86.63
49461;BME280;35355;49.198;-0.368;2022-12-07T08:20:42;101585.19;;;3.25;86.17
49461;BME280;35355;49.198;-0.368;2022-12-07T08:23:08;101588.13;;;3.30;86.67
49461;BME280;35355;49.198;-0.368;2022-12-07T08:25:35;101596.03;;;3.32;86.56
49461;BME280;35355;49.198;-0.368;2022-12-07T08:28:01;101600.41;;;3.33;86.50
49461;BME280;35355;49.198;-0.368;2022-12-07T08:30:27;101610.63;;;3.38;86.52
49461;BME280;35355;49.198;-0.368;2022-12-07T08:32:53;101603.81;;;3.42;86.21
49461;BME280;35355;49.198;-0.368;2022-12-07T08:35:18;101606.31;;;3.43;86.40
49461;BME280;35355;49.198;-0.368;2022-12-07T08:37:44;101612.53;;;3.44;86.55
49461;BME280;35355;49.198;-0.368;2022-12-07T08:40:11;101601.38;;;3.47;86.24
49461;BME280;35355;49.198;-0.368;2022-12-07T08:42:40;101604.72;;;3.49;85.89
49461;BME280;35355;49.198;-0.368;2022-12-07T08:45:08;101606.66;;;3.55;86.41
49461;BME280;35355;49.198;-0.368;2022-12-07T08:47:35;101593.97;;;3.56;85.71
49461;BME280;35355;49.198;-0.368;2022-12-07T08:50:03;101601.31;;;3.62;86.05
49461;BME280;35355;49.198;-0.368;2022-12-07T08:52:31;101601.94;;;3.64;86.15
49461;BME280;35355;49.198;-0.368;2022-12-07T08:54:58;101602.38;;;3.67;85.80
49461;BME280;35355;49.198;-0.368;2022-12-07T08:57:24;101598.66;;;3.68;85.87
49461;BME280;35355;49.198;-0.368;2022-12-07T08:59:50;101603.66;;;3.72;86.45
49461;BME280;35355;49.198;-0.368;2022-12-07T09:02:18;101599.94;;;3.73;85.98
49461;BME280;35355;49.198;-0.368;2022-12-07T09:04:44;101607.66;;;3.76;85.64
49461;BME280;35355;49.198;-0.368;2022-12-07T09:07:09;101606.63;;;3.77;85.51
49461;BME280;35355;49.198;-0.368;2022-12-07T09:09:35;101605.38;;;3.79;85.68
49461;BME280;35355;49.198;-0.368;2022-12-07T09:12:00;101596.06;;;3.82;85.84
49461;BME280;35355;49.198;-0.368;2022-12-07T09:14:26;101603.78;;;3.85;85.68
49461;BME280;35355;49.198;-0.368;2022-12-07T09:16:51;101597.34;;;3.86;85.54
49461;BME280;35355;49.198;-0.368;2022-12-07T09:19:17;101596.75;;;3.91;85.84
49461;BME280;35355;49.198;-0.368;2022-12-07T09:21:42;101607.63;;;3.97;85.86
49461;BME280;35355;49.198;-0.368;2022-12-07T09:24:08;101610.13;;;3.99;85.96
49461;BME280;35355;49.198;-0.368;2022-12-07T09:26:34;101609.94;;;4.00;85.85
49461;BME280;35355;49.198;-0.368;2022-12-07T09:29:03;101607.22;;;4.00;85.90
49461;BME280;35355;49.198;-0.368;2022-12-07T09:31:28;101606.84;;;4.03;85.47
49461;BME280;35355;49.198;-0.368;2022-12-07T09:33:55;101607.66;;;4.04;85.65
49461;BME280;35355;49.198;-0.368;2022-12-07T09:36:21;101605.97;;;4.03;85.75
49461;BME280;35355;49.198;-0.368;2022-12-07T09:38:46;101601.63;;;4.02;85.77
49461;BME280;35355;49.198;-0.368;2022-12-07T09:41:11;101606.25;;;4.08;85.63
49461;BME280;35355;49.198;-0.368;2022-12-07T09:43:38;101604.38;;;4.09;85.42
49461;BME280;35355;49.198;-0.368;2022-12-07T09:46:10;101598.97;;;4.09;85.20
49461;BME280;35355;49.198;-0.368;2022-12-07T09:48:38;101601.25;;;4.12;85.59
49461;BME280;35355;49.198;-0.368;2022-12-07T09:51:16;101598.81;;;4.17;85.43
49461;BME280;35355;49.198;-0.368;2022-12-07T09:53:42;101599.63;;;4.17;85.39
49461;BME280;35355;49.198;-0.368;2022-12-07T09:56:12;101586.78;;;4.19;85.33
49461;BME280;35355;49.198;-0.368;2022-12-07T09:58:39;101590.13;;;4.21;85.51
49461;BME280;35355;49.198;-0.368;2022-12-07T10:03:33;101592.22;;;4.26;85.48
49461;BME280;35355;49.198;-0.368;2022-12-07T10:05:59;101595.38;;;4.30;85.73
49461;BME280;35355;49.198;-0.368;2022-12-07T10:08:25;101593.72;;;4.35;84.94
49461;BME280;35355;49.198;-0.368;2022-12-07T10:10:53;101587.13;;;4.45;85.50
49461;BME280;35355;49.198;-0.368;2022-12-07T10:13:21;101591.34;;;4.54;85.21
49461;BME280;35355;49.198;-0.368;2022-12-07T10:15:53;101592.19;;;4.61;85.33
49461;BME280;35355;49.198;-0.368;2022-12-07T10:20:46;101587.06;;;4.73;85.19
49461;BME280;35355;49.198;-0.368;2022-12-07T10:23:17;101582.72;;;4.79;84.74
49461;BME280;35355;49.198;-0.368;2022-12-07T10:25:44;101576.25;;;4.80;84.56
49461;BME280;35355;49.198;-0.368;2022-12-07T10:28:18;101572.75;;;4.86;84.50
49461;BME280;35355;49.198;-0.368;2022-12-07T10:30:47;101574.00;;;4.90;85.25
49461;BME280;35355;49.198;-0.368;2022-12-07T10:35:57;101568.56;;;4.90;84.42
49461;BME280;35355;49.198;-0.368;2022-12-07T10:38:25;101557.78;;;4.97;84.86
49461;BME280;35355;49.198;-0.368;2022-12-07T10:41:04;101556.56;;;5.06;85.07
49461;BME280;35355;49.198;-0.368;2022-12-07T10:43:32;101553.88;;;5.13;85.16
49461;BME280;35355;49.198;-0.368;2022-12-07T10:49:22;101553.47;;;5.29;84.75
49461;BME280;35355;49.198;-0.368;2022-12-07T10:54:44;101549.94;;;5.35;84.79
49461;BME280;35355;49.198;-0.368;2022-12-07T10:59:51;101546.38;;;5.28;84.22
49461;BME280;35355;49.198;-0.368;2022-12-07T11:08:21;101537.88;;;5.24;84.73
49461;BME280;35355;49.198;-0.368;2022-12-07T11:11:13;101537.88;;;5.24;84.45
49461;BME280;35355;49.198;-0.368;2022-12-07T11:21:19;101523.69;;;5.36;84.65
49461;BME280;35355;49.198;-0.368;2022-12-07T11:24:02;101522.69;;;5.43;84.28
49461;BME280;35355;49.198;-0.368;2022-12-07T11:37:02;101498.72;;;5.47;83.90
49461;BME280;35355;49.198;-0.368;2022-12-07T11:39:41;101503.72;;;5.30;84.21
49461;BME280;35355;49.198;-0.368;2022-12-07T11:42:31;101494.31;;;5.19;84.71
49461;BME280;35355;49.198;-0.368;2022-12-07T11:45:03;101493.28;;;5.14;84.10
49461;BME280;35355;49.198;-0.368;2022-12-07T11:47:38;101492.88;;;5.17;84.52
49461;BME280;35355;49.198;-0.368;2022-12-07T11:50:17;101492.91;;;5.30;84.91
49461;BME280;35355;49.198;-0.368;2022-12-07T11:52:51;101490.19;;;5.43;84.81
49461;BME280;35355;49.198;-0.368;2022-12-07T11:55:38;101485.38;;;5.59;84.97
49461;BME280;35355;49.198;-0.368;2022-12-07T11:58:18;101483.28;;;5.74;85.03
49461;BME280;35355;49.198;-0.368;2022-12-07T12:00:49;101472.00;;;5.84;84.97
49461;BME280;35355;49.198;-0.368;2022-12-07T12:03:25;101471.78;;;5.92;84.79
49461;BME280;35355;49.198;-0.368;2022-12-07T12:05:56;101468.22;;;5.99;85.21
49461;BME280;35355;49.198;-0.368;2022-12-07T12:08:30;101469.88;;;6.06;84.69
49461;BME280;35355;49.198;-0.368;2022-12-07T12:14:42;101449.44;;;6.10;84.94
49461;BME280;35355;49.198;-0.368;2022-12-07T12:20:28;101444.00;;;6.10;84.50
49461;BME280;35355;49.198;-0.368;2022-12-07T12:25:34;101441.88;;;6.19;84.33
49461;BME280;35355;49.198;-0.368;2022-12-07T12:28:01;101433.53;;;6.21;84.68
49461;BME280;35355;49.198;-0.368;2022-12-07T12:30:37;101440.59;;;6.28;84.46
49461;BME280;35355;49.198;-0.368;2022-12-07T12:35:40;101431.56;;;6.41;84.40
49461;BME280;35355;49.198;-0.368;2022-12-07T12:38:29;101435.91;;;6.49;84.50
49461;BME280;35355;49.198;-0.368;2022-12-07T12:41:01;101431.94;;;6.52;84.64
49461;BME280;35355;49.198;-0.368;2022-12-07T12:43:47;101417.94;;;6.55;84.61
49461;BME280;35355;49.198;-0.368;2022-12-07T12:51:44;101415.38;;;6.60;84.59
49461;BME280;35355;49.198;-0.368;2022-12-07T12:54:23;101404.53;;;6.60;84.69
49461;BME280;35355;49.198;-0.368;2022-12-07T12:59:35;101410.59;;;6.62;84.12
49461;BME280;35355;49.198;-0.368;2022-12-07T13:05:00;101398.69;;;6.63;84.30
49461;BME280;35355;49.198;-0.368;2022-12-07T13:26:20;101392.84;;;6.59;84.64
49461;BME280;35355;49.198;-0.368;2022-12-07T13:28:51;101391.84;;;6.54;84.90
49461;BME280;35355;49.198;-0.368;2022-12-07T13:31:23;101388.75;;;6.50;84.79
49461;BME280;35355;49.198;-0.368;2022-12-07T13:33:52;101391.06;;;6.46;84.69
49461;BME280;35355;49.198;-0.368;2022-12-07T13:36:23;101391.28;;;6.45;84.42
49461;BME280;35355;49.198;-0.368;2022-12-07T13:38:54;101390.44;;;6.44;84.88
49461;BME280;35355;49.198;-0.368;2022-12-07T13:41:21;101381.72;;;6.42;84.89
49461;BME280;35355;49.198;-0.368;2022-12-07T13:44:03;101377.56;;;6.40;85.46
49461;BME280;35355;49.198;-0.368;2022-12-07T13:46:58;101378.22;;;6.35;84.93
49461;BME280;35355;49.198;-0.368;2022-12-07T13:49:30;101375.09;;;6.31;85.25
49461;BME280;35355;49.198;-0.368;2022-12-07T14:11:39;101344.94;;;5.69;85.14
49461;BME280;35355;49.198;-0.368;2022-12-07T14:14:04;101348.25;;;5.71;85.27
49461;BME280;35355;49.198;-0.368;2022-12-07T14:16:32;101337.00;;;5.74;85.59
49461;BME280;35355;49.198;-0.368;2022-12-07T14:19:02;101338.84;;;5.80;85.65
49461;BME280;35355;49.198;-0.368;2022-12-07T14:21:33;101329.84;;;5.87;85.60
49461;BME280;35355;49.198;-0.368;2022-12-07T14:24:17;101327.53;;;5.97;85.49
49461;BME280;35355;49.198;-0.368;2022-12-07T14:26:44;101322.28;;;6.02;85.94
49461;BME280;35355;49.198;-0.368;2022-12-07T14:31:53;101320.13;;;6.18;85.40
49461;BME280;35355;49.198;-0.368;2022-12-07T14:34:20;101315.50;;;6.25;85.52
49461;BME280;35355;49.198;-0.368;2022-12-07T14:36:46;101311.72;;;6.26;85.89
49461;BME280;35355;49.198;-0.368;2022-12-07T14:39:12;101319.22;;;6.30;84.93
49461;BME280;35355;49.198;-0.368;2022-12-07T14:41:37;101312.34;;;6.28;85.86
49461;BME280;35355;49.198;-0.368;2022-12-07T14:44:22;101304.22;;;6.28;85.26
49461;BME280;35355;49.198;-0.368;2022-12-07T14:46:51;101312.94;;;6.30;85.58
49461;BME280;35355;49.198;-0.368;2022-12-07T14:49:17;101305.88;;;6.29;85.26
49461;BME280;35355;49.198;-0.368;2022-12-07T14:51:44;101309.41;;;6.29;85.29
49461;BME280;35355;49.198;-0.368;2022-12-07T14:54:18;101312.94;;;6.30;84.94
49461;BME280;35355;49.198;-0.368;2022-12-07T14:56:45;101313.38;;;6.27;85.70
49461;BME280;35355;49.198;-0.368;2022-12-07T14:59:14;101306.72;;;6.23;85.85
49461;BME280;35355;49.198;-0.368;2022-12-07T15:01:39;101308.63;;;6.22;85.78
49461;BME280;35355;49.198;-0.368;2022-12-07T15:04:04;101306.13;;;6.21;85.53
49461;BME280;35355;49.198;-0.368;2022-12-07T15:06:30;101303.44;;;6.21;86.03
49461;BME280;35355;49.198;-0.368;2022-12-07T15:08:55;101310.09;;;6.18;85.71
49461;BME280;35355;49.198;-0.368;2022-12-07T15:11:21;101291.78;;;6.13;86.18
49461;BME280;35355;49.198;-0.368;2022-12-07T15:13:46;101297.66;;;6.10;85.97
49461;BME280;35355;49.198;-0.368;2022-12-07T15:16:30;101292.03;;;6.05;86.08
49461;BME280;35355;49.198;-0.368;2022-12-07T15:18:56;101278.31;;;6.00;86.07
49461;BME280;35355;49.198;-0.368;2022-12-07T15:21:21;101279.38;;;5.99;86.29
49461;BME280;35355;49.198;-0.368;2022-12-07T15:23:47;101279.38;;;5.99;85.35
49461;BME280;35355;49.198;-0.368;2022-12-07T15:26:13;101282.28;;;5.97;86.83
49461;BME280;35355;49.198;-0.368;2022-12-07T15:28:39;101278.94;;;6.02;86.03
49461;BME280;35355;49.198;-0.368;2022-12-07T15:31:13;101276.22;;;6.02;86.20
49461;BME280;35355;49.198;-0.368;2022-12-07T15:33:39;101274.38;;;6.03;85.63
49461;BME280;35355;49.198;-0.368;2022-12-07T15:36:05;101268.94;;;6.03;86.13